Saint Joseph, MN

12:02 PM CST on January 27, 2015 (GMT -0600)
Saint Johns University Campus | Change Station
CLOSE
Current Station
Personal Weather Station
Location: Collegeville, MN
Elevation: 1200 ft
Nearby Weather Stations

Elev 1200 ft 45.58 °N, 94.39 °W | Updated 4 minutes ago

Overcast
Overcast
33.2 °F
Feels Like 33 °F
N
2.0
Wind Variable Wind from South
Gusts 7.0 mph

Today
High -- | Low -- °F
--% Chance of Precip.
Yesterday
High -- | Low -- °F
Precip. -- in
7:44 AM 5:16 PM
First Quarter, 56% visible
Pressure 30.20 in
Visibility 10.0 miles
Clouds Overcast 1600 ft
Windchill 33 °F
Dew Point 30 °F
Humidity 86%
Rainfall 0.00 in
Snow Depth Not available.
UV 0.9 out of 12
Pollen .10 out of 12
Air Quality Not available.
Flu Activity Not available.
METAR KSTC 271753Z 14008KT 10SM OVC016 00/M03 A3014 RMK AO2 SLP227 T00001033 10000 21006 50003

More Conditions Fewer Conditions

Pressure 30.20 in
Visibility 10.0 miles
Clouds Overcast 1600 ft
Windchill 33 °F
Dew Point 30 °F
Humidity 86%
Rainfall 0.00 in
Snow Depth Not available.
UV 0.9 out of 12
Pollen .10 out of 12
Air Quality Not available.
Flu Activity Not available.
METAR KSTC 271753Z 14008KT 10SM OVC016 00/M03 A3014 RMK AO2 SLP227 T00001033 10000 21006 50003

More Conditions Fewer Conditions

10-Day Weather Forecast

Almanac

Astronomy

Jan. 27, 2015 Rise Set
Actual Time
Civil Twilight
Nautical Twilight
Astronomical Twilight
Moon
Length of Visible Light
Length of Day
Tomorrow will be .
, % of the Moon is Illuminated

Today's Extremes

State Highs State Lows

Community

WunderPhotos

Upload Photos

1,790,745 photos uploaded!

WunderBlogs® & News

Nearby

Air Quality

  Air Quality AQ Index Pollutant
Not available.

Snow Depth

Station Depth Elevation

Earthquake Activity

City Distance Mag. Time & Date
Minimum magnitude displayed is 2.5.

Coastal Water Temperatures

Place Temperature

Nearby Weather Stations